sensor_id;sensor_type;location;lat;lon;timestamp;P1;durP1;ratioP1;P2;durP2;ratioP2
9420;SDS011;4749;51.398;5.466;2023-09-30T00:02:04;12.60;;;5.97;;
9420;SDS011;4749;51.398;5.466;2023-09-30T00:04:31;10.25;;;5.68;;
9420;SDS011;4749;51.398;5.466;2023-09-30T00:07:00;11.88;;;6.35;;
9420;SDS011;4749;51.398;5.466;2023-09-30T00:09:27;12.07;;;6.00;;
9420;SDS011;4749;51.398;5.466;2023-09-30T00:11:54;12.93;;;7.10;;
9420;SDS011;4749;51.398;5.466;2023-09-30T00:14:21;14.25;;;7.25;;
9420;SDS011;4749;51.398;5.466;2023-09-30T00:16:49;13.05;;;8.07;;
9420;SDS011;4749;51.398;5.466;2023-09-30T00:19:17;13.15;;;6.95;;
9420;SDS011;4749;51.398;5.466;2023-09-30T00:21:44;13.52;;;8.13;;
9420;SDS011;4749;51.398;5.466;2023-09-30T00:24:11;14.45;;;8.10;;
9420;SDS011;4749;51.398;5.466;2023-09-30T00:26:38;17.98;;;9.38;;
9420;SDS011;4749;51.398;5.466;2023-09-30T00:29:06;16.23;;;8.98;;
9420;SDS011;4749;51.398;5.466;2023-09-30T00:31:33;14.07;;;8.48;;
9420;SDS011;4749;51.398;5.466;2023-09-30T00:34:00;15.73;;;8.40;;
9420;SDS011;4749;51.398;5.466;2023-09-30T00:36:27;16.98;;;10.00;;
9420;SDS011;4749;51.398;5.466;2023-09-30T00:38:55;17.15;;;10.25;;
9420;SDS011;4749;51.398;5.466;2023-09-30T00:41:22;18.20;;;8.90;;
9420;SDS011;4749;51.398;5.466;2023-09-30T00:43:49;19.65;;;10.20;;
9420;SDS011;4749;51.398;5.466;2023-09-30T00:46:27;16.05;;;9.68;;
9420;SDS011;4749;51.398;5.466;2023-09-30T00:48:59;17.55;;;8.90;;
9420;SDS011;4749;51.398;5.466;2023-09-30T00:51:29;14.50;;;8.48;;
9420;SDS011;4749;51.398;5.466;2023-09-30T01:46:54;17.73;;;10.25;;
9420;SDS011;4749;51.398;5.466;2023-09-30T01:49:21;17.15;;;9.95;;
9420;SDS011;4749;51.398;5.466;2023-09-30T01:51:52;17.48;;;9.23;;
9420;SDS011;4749;51.398;5.466;2023-09-30T01:54:20;20.02;;;10.10;;
9420;SDS011;4749;51.398;5.466;2023-09-30T01:56:47;19.00;;;9.90;;
9420;SDS011;4749;51.398;5.466;2023-09-30T01:59:17;22.55;;;11.30;;
9420;SDS011;4749;51.398;5.466;2023-09-30T02:01:47;17.98;;;10.38;;
9420;SDS011;4749;51.398;5.466;2023-09-30T02:04:16;19.58;;;10.90;;
9420;SDS011;4749;51.398;5.466;2023-09-30T02:06:43;19.88;;;11.32;;
9420;SDS011;4749;51.398;5.466;2023-09-30T02:09:11;22.20;;;10.90;;
9420;SDS011;4749;51.398;5.466;2023-09-30T02:11:39;19.08;;;11.68;;
9420;SDS011;4749;51.398;5.466;2023-09-30T02:14:09;17.60;;;11.25;;
9420;SDS011;4749;51.398;5.466;2023-09-30T02:16:47;22.00;;;11.68;;
9420;SDS011;4749;51.398;5.466;2023-09-30T02:19:14;17.35;;;10.93;;
9420;SDS011;4749;51.398;5.466;2023-09-30T02:21:42;20.02;;;11.73;;
9420;SDS011;4749;51.398;5.466;2023-09-30T02:24:10;18.80;;;11.45;;
9420;SDS011;4749;51.398;5.466;2023-09-30T02:26:38;16.50;;;10.83;;
9420;SDS011;4749;51.398;5.466;2023-09-30T02:29:05;21.77;;;12.00;;
9420;SDS011;4749;51.398;5.466;2023-09-30T02:31:34;18.13;;;11.93;;
9420;SDS011;4749;51.398;5.466;2023-09-30T02:34:01;20.67;;;11.73;;
9420;SDS011;4749;51.398;5.466;2023-09-30T02:36:29;20.90;;;12.55;;
9420;SDS011;4749;51.398;5.466;2023-09-30T02:38:56;16.50;;;11.55;;
9420;SDS011;4749;51.398;5.466;2023-09-30T02:41:24;20.02;;;11.70;;
9420;SDS011;4749;51.398;5.466;2023-09-30T02:43:53;21.95;;;11.85;;
9420;SDS011;4749;51.398;5.466;2023-09-30T02:46:24;17.55;;;11.82;;
9420;SDS011;4749;51.398;5.466;2023-09-30T02:48:54;19.85;;;10.63;;
9420;SDS011;4749;51.398;5.466;2023-09-30T02:51:22;22.50;;;12.52;;
9420;SDS011;4749;51.398;5.466;2023-09-30T02:53:52;23.60;;;11.48;;
9420;SDS011;4749;51.398;5.466;2023-09-30T02:56:19;24.13;;;13.37;;
9420;SDS011;4749;51.398;5.466;2023-09-30T02:58:53;20.73;;;12.88;;
9420;SDS011;4749;51.398;5.466;2023-09-30T03:01:21;26.80;;;14.18;;
9420;SDS011;4749;51.398;5.466;2023-09-30T03:03:48;23.15;;;13.55;;
9420;SDS011;4749;51.398;5.466;2023-09-30T03:06:16;21.83;;;12.70;;
9420;SDS011;4749;51.398;5.466;2023-09-30T03:08:45;18.30;;;12.32;;
9420;SDS011;4749;51.398;5.466;2023-09-30T03:11:13;24.55;;;12.88;;
9420;SDS011;4749;51.398;5.466;2023-09-30T03:13:40;20.48;;;12.98;;
9420;SDS011;4749;51.398;5.466;2023-09-30T03:16:08;20.27;;;11.93;;
9420;SDS011;4749;51.398;5.466;2023-09-30T03:18:36;19.23;;;12.85;;
9420;SDS011;4749;51.398;5.466;2023-09-30T03:21:12;25.90;;;15.32;;
9420;SDS011;4749;51.398;5.466;2023-09-30T03:23:43;23.15;;;13.73;;
9420;SDS011;4749;51.398;5.466;2023-09-30T03:26:10;29.25;;;15.48;;
9420;SDS011;4749;51.398;5.466;2023-09-30T03:28:39;39.63;;;16.70;;
9420;SDS011;4749;51.398;5.466;2023-09-30T03:31:07;33.40;;;16.58;;
9420;SDS011;4749;51.398;5.466;2023-09-30T03:33:37;29.40;;;16.00;;
9420;SDS011;4749;51.398;5.466;2023-09-30T03:36:05;32.63;;;16.42;;
9420;SDS011;4749;51.398;5.466;2023-09-30T03:38:35;32.53;;;18.33;;
9420;SDS011;4749;51.398;5.466;2023-09-30T03:41:02;30.02;;;16.05;;
9420;SDS011;4749;51.398;5.466;2023-09-30T03:43:30;29.67;;;16.83;;
9420;SDS011;4749;51.398;5.466;2023-09-30T03:45:57;39.67;;;19.10;;
9420;SDS011;4749;51.398;5.466;2023-09-30T03:48:24;28.08;;;16.02;;
9420;SDS011;4749;51.398;5.466;2023-09-30T03:50:51;27.50;;;16.35;;
9420;SDS011;4749;51.398;5.466;2023-09-30T03:53:20;29.90;;;16.50;;
9420;SDS011;4749;51.398;5.466;2023-09-30T03:55:47;33.13;;;16.13;;
9420;SDS011;4749;51.398;5.466;2023-09-30T03:58:15;26.13;;;15.75;;
9420;SDS011;4749;51.398;5.466;2023-09-30T04:00:44;31.30;;;17.13;;
9420;SDS011;4749;51.398;5.466;2023-09-30T04:03:12;32.90;;;17.48;;
9420;SDS011;4749;51.398;5.466;2023-09-30T04:05:39;30.38;;;16.52;;
9420;SDS011;4749;51.398;5.466;2023-09-30T04:08:08;31.67;;;17.03;;
9420;SDS011;4749;51.398;5.466;2023-09-30T04:10:35;34.05;;;17.90;;
9420;SDS011;4749;51.398;5.466;2023-09-30T04:13:03;30.98;;;16.08;;
9420;SDS011;4749;51.398;5.466;2023-09-30T04:15:30;29.40;;;16.45;;
9420;SDS011;4749;51.398;5.466;2023-09-30T04:17:57;27.48;;;15.95;;
9420;SDS011;4749;51.398;5.466;2023-09-30T04:20:24;28.67;;;15.68;;
9420;SDS011;4749;51.398;5.466;2023-09-30T04:22:53;30.05;;;16.27;;
9420;SDS011;4749;51.398;5.466;2023-09-30T04:25:24;28.15;;;15.60;;
9420;SDS011;4749;51.398;5.466;2023-09-30T04:27:52;35.15;;;17.33;;
9420;SDS011;4749;51.398;5.466;2023-09-30T04:30:20;32.42;;;17.95;;
9420;SDS011;4749;51.398;5.466;2023-09-30T04:32:49;31.60;;;17.50;;
9420;SDS011;4749;51.398;5.466;2023-09-30T04:35:16;29.35;;;16.63;;
9420;SDS011;4749;51.398;5.466;2023-09-30T04:37:44;28.83;;;16.63;;
9420;SDS011;4749;51.398;5.466;2023-09-30T04:40:12;28.13;;;14.73;;
9420;SDS011;4749;51.398;5.466;2023-09-30T04:42:48;31.47;;;16.03;;
9420;SDS011;4749;51.398;5.466;2023-09-30T04:45:16;31.27;;;17.30;;
9420;SDS011;4749;51.398;5.466;2023-09-30T04:47:47;30.70;;;16.67;;
9420;SDS011;4749;51.398;5.466;2023-09-30T04:50:17;30.73;;;15.43;;
9420;SDS011;4749;51.398;5.466;2023-09-30T04:52:48;31.13;;;15.85;;
9420;SDS011;4749;51.398;5.466;2023-09-30T04:55:18;25.83;;;14.80;;
9420;SDS011;4749;51.398;5.466;2023-09-30T04:57:46;26.25;;;15.77;;
9420;SDS011;4749;51.398;5.466;2023-09-30T05:00:14;26.40;;;15.60;;
9420;SDS011;4749;51.398;5.466;2023-09-30T05:02:44;27.50;;;15.73;;
9420;SDS011;4749;51.398;5.466;2023-09-30T05:05:12;28.77;;;16.63;;
9420;SDS011;4749;51.398;5.466;2023-09-30T05:07:41;27.23;;;15.20;;
9420;SDS011;4749;51.398;5.466;2023-09-30T05:10:09;27.13;;;15.18;;
9420;SDS011;4749;51.398;5.466;2023-09-30T05:12:40;29.40;;;15.20;;
9420;SDS011;4749;51.398;5.466;2023-09-30T05:15:13;27.73;;;16.57;;
9420;SDS011;4749;51.398;5.466;2023-09-30T05:17:43;27.03;;;14.83;;
9420;SDS011;4749;51.398;5.466;2023-09-30T05:20:12;28.97;;;15.57;;
9420;SDS011;4749;51.398;5.466;2023-09-30T05:22:40;23.03;;;13.63;;
9420;SDS011;4749;51.398;5.466;2023-09-30T05:25:09;28.83;;;14.53;;
9420;SDS011;4749;51.398;5.466;2023-09-30T05:27:37;25.55;;;13.88;;
9420;SDS011;4749;51.398;5.466;2023-09-30T05:30:05;24.27;;;13.55;;
9420;SDS011;4749;51.398;5.466;2023-09-30T05:32:33;25.87;;;14.07;;
9420;SDS011;4749;51.398;5.466;2023-09-30T05:35:05;26.57;;;15.17;;
9420;SDS011;4749;51.398;5.466;2023-09-30T05:37:40;18.58;;;12.95;;
9420;SDS011;4749;51.398;5.466;2023-09-30T05:40:08;22.67;;;13.43;;
9420;SDS011;4749;51.398;5.466;2023-09-30T05:42:50;22.47;;;13.27;;
9420;SDS011;4749;51.398;5.466;2023-09-30T05:45:27;23.20;;;12.63;;
9420;SDS011;4749;51.398;5.466;2023-09-30T05:47:57;23.33;;;13.10;;
9420;SDS011;4749;51.398;5.466;2023-09-30T05:50:29;23.57;;;13.60;;
9420;SDS011;4749;51.398;5.466;2023-09-30T05:52:58;21.60;;;12.60;;
9420;SDS011;4749;51.398;5.466;2023-09-30T05:55:25;26.08;;;13.77;;
9420;SDS011;4749;51.398;5.466;2023-09-30T05:57:54;18.50;;;12.27;;
9420;SDS011;4749;51.398;5.466;2023-09-30T06:00:22;22.85;;;13.25;;
9420;SDS011;4749;51.398;5.466;2023-09-30T06:02:58;22.67;;;13.37;;
9420;SDS011;4749;51.398;5.466;2023-09-30T06:05:27;23.87;;;13.00;;
9420;SDS011;4749;51.398;5.466;2023-09-30T06:07:57;17.80;;;11.83;;
9420;SDS011;4749;51.398;5.466;2023-09-30T06:10:26;22.13;;;12.40;;
9420;SDS011;4749;51.398;5.466;2023-09-30T06:12:55;23.03;;;12.27;;
9420;SDS011;4749;51.398;5.466;2023-09-30T06:15:24;20.90;;;12.00;;
9420;SDS011;4749;51.398;5.466;2023-09-30T06:17:53;19.40;;;11.97;;
9420;SDS011;4749;51.398;5.466;2023-09-30T06:20:22;20.73;;;12.10;;
9420;SDS011;4749;51.398;5.466;2023-09-30T06:22:54;19.33;;;12.03;;
9420;SDS011;4749;51.398;5.466;2023-09-30T06:25:21;18.98;;;11.80;;
9420;SDS011;4749;51.398;5.466;2023-09-30T06:27:54;20.05;;;12.23;;
9420;SDS011;4749;51.398;5.466;2023-09-30T06:30:21;18.70;;;12.25;;
9420;SDS011;4749;51.398;5.466;2023-09-30T06:32:57;20.92;;;11.52;;
9420;SDS011;4749;51.398;5.466;2023-09-30T06:35:27;20.80;;;13.13;;
9420;SDS011;4749;51.398;5.466;2023-09-30T06:37:57;27.25;;;12.98;;
9420;SDS011;4749;51.398;5.466;2023-09-30T06:40:24;28.70;;;13.82;;
9420;SDS011;4749;51.398;5.466;2023-09-30T06:42:51;26.05;;;14.07;;
9420;SDS011;4749;51.398;5.466;2023-09-30T06:45:22;24.67;;;13.65;;
9420;SDS011;4749;51.398;5.466;2023-09-30T06:47:52;29.85;;;15.40;;
9420;SDS011;4749;51.398;5.466;2023-09-30T06:50:23;24.98;;;14.38;;
9420;SDS011;4749;51.398;5.466;2023-09-30T06:52:51;35.15;;;16.20;;
9420;SDS011;4749;51.398;5.466;2023-09-30T06:55:18;29.08;;;14.45;;
9420;SDS011;4749;51.398;5.466;2023-09-30T06:57:45;26.98;;;14.13;;
9420;SDS011;4749;51.398;5.466;2023-09-30T07:00:13;30.05;;;15.85;;
9420;SDS011;4749;51.398;5.466;2023-09-30T07:02:41;27.85;;;15.07;;
9420;SDS011;4749;51.398;5.466;2023-09-30T07:05:10;37.22;;;15.73;;
9420;SDS011;4749;51.398;5.466;2023-09-30T07:07:39;28.88;;;14.90;;
9420;SDS011;4749;51.398;5.466;2023-09-30T07:10:09;31.63;;;15.45;;
9420;SDS011;4749;51.398;5.466;2023-09-30T07:12:39;30.27;;;16.05;;
9420;SDS011;4749;51.398;5.466;2023-09-30T07:15:07;32.05;;;15.75;;
9420;SDS011;4749;51.398;5.466;2023-09-30T07:17:35;29.42;;;14.90;;
9420;SDS011;4749;51.398;5.466;2023-09-30T07:20:03;30.10;;;15.60;;
9420;SDS011;4749;51.398;5.466;2023-09-30T07:22:33;29.52;;;14.38;;
9420;SDS011;4749;51.398;5.466;2023-09-30T07:25:16;34.20;;;14.45;;
9420;SDS011;4749;51.398;5.466;2023-09-30T07:27:45;25.38;;;14.50;;
9420;SDS011;4749;51.398;5.466;2023-09-30T07:30:13;29.13;;;14.38;;
9420;SDS011;4749;51.398;5.466;2023-09-30T07:32:44;28.52;;;13.95;;
9420;SDS011;4749;51.398;5.466;2023-09-30T07:35:13;32.90;;;15.13;;
9420;SDS011;4749;51.398;5.466;2023-09-30T07:37:42;28.73;;;12.93;;
9420;SDS011;4749;51.398;5.466;2023-09-30T07:40:11;28.13;;;13.43;;
9420;SDS011;4749;51.398;5.466;2023-09-30T07:42:39;24.23;;;12.95;;
9420;SDS011;4749;51.398;5.466;2023-09-30T07:45:07;28.27;;;12.20;;
9420;SDS011;4749;51.398;5.466;2023-09-30T07:47:35;26.73;;;13.40;;
9420;SDS011;4749;51.398;5.466;2023-09-30T07:50:05;28.30;;;12.75;;
9420;SDS011;4749;51.398;5.466;2023-09-30T07:52:37;23.17;;;12.90;;
9420;SDS011;4749;51.398;5.466;2023-09-30T07:55:06;25.83;;;12.23;;
9420;SDS011;4749;51.398;5.466;2023-09-30T07:57:35;25.60;;;11.88;;
9420;SDS011;4749;51.398;5.466;2023-09-30T08:00:03;27.45;;;12.43;;
9420;SDS011;4749;51.398;5.466;2023-09-30T08:02:36;26.38;;;12.50;;
9420;SDS011;4749;51.398;5.466;2023-09-30T08:05:05;30.08;;;11.00;;
9420;SDS011;4749;51.398;5.466;2023-09-30T08:07:33;29.88;;;11.60;;
9420;SDS011;4749;51.398;5.466;2023-09-30T08:10:01;24.15;;;11.23;;
9420;SDS011;4749;51.398;5.466;2023-09-30T08:12:33;26.58;;;12.23;;
9420;SDS011;4749;51.398;5.466;2023-09-30T08:15:00;23.50;;;11.18;;
9420;SDS011;4749;51.398;5.466;2023-09-30T08:17:30;24.33;;;11.93;;
9420;SDS011;4749;51.398;5.466;2023-09-30T08:19:58;23.80;;;12.27;;
9420;SDS011;4749;51.398;5.466;2023-09-30T08:22:31;25.05;;;10.65;;
9420;SDS011;4749;51.398;5.466;2023-09-30T08:24:58;24.45;;;9.90;;
9420;SDS011;4749;51.398;5.466;2023-09-30T08:27:26;22.92;;;10.00;;
9420;SDS011;4749;51.398;5.466;2023-09-30T08:29:54;26.63;;;9.90;;
9420;SDS011;4749;51.398;5.466;2023-09-30T08:32:21;23.90;;;9.50;;
9420;SDS011;4749;51.398;5.466;2023-09-30T08:34:49;19.52;;;9.10;;
9420;SDS011;4749;51.398;5.466;2023-09-30T08:37:17;18.67;;;10.00;;
9420;SDS011;4749;51.398;5.466;2023-09-30T08:39:44;21.45;;;9.95;;
9420;SDS011;4749;51.398;5.466;2023-09-30T08:42:11;26.85;;;11.23;;
9420;SDS011;4749;51.398;5.466;2023-09-30T08:44:39;24.75;;;10.25;;
9420;SDS011;4749;51.398;5.466;2023-09-30T08:47:07;22.48;;;10.52;;
9420;SDS011;4749;51.398;5.466;2023-09-30T08:49:39;20.30;;;10.63;;
9420;SDS011;4749;51.398;5.466;2023-09-30T08:52:10;20.58;;;10.45;;
9420;SDS011;4749;51.398;5.466;2023-09-30T08:54:39;23.58;;;10.45;;
9420;SDS011;4749;51.398;5.466;2023-09-30T08:57:07;21.08;;;10.23;;
9420;SDS011;4749;51.398;5.466;2023-09-30T08:59:36;20.23;;;10.43;;
9420;SDS011;4749;51.398;5.466;2023-09-30T09:02:08;23.33;;;10.35;;
9420;SDS011;4749;51.398;5.466;2023-09-30T09:04:36;19.08;;;10.68;;
9420;SDS011;4749;51.398;5.466;2023-09-30T09:07:04;18.30;;;9.20;;
9420;SDS011;4749;51.398;5.466;2023-09-30T09:09:32;22.30;;;10.63;;
9420;SDS011;4749;51.398;5.466;2023-09-30T09:12:00;20.27;;;10.07;;
9420;SDS011;4749;51.398;5.466;2023-09-30T09:14:40;22.52;;;10.68;;
9420;SDS011;4749;51.398;5.466;2023-09-30T09:17:10;20.40;;;10.00;;
9420;SDS011;4749;51.398;5.466;2023-09-30T09:19:38;20.33;;;9.73;;
9420;SDS011;4749;51.398;5.466;2023-09-30T09:22:05;21.70;;;10.32;;
9420;SDS011;4749;51.398;5.466;2023-09-30T09:24:34;18.05;;;9.57;;
9420;SDS011;4749;51.398;5.466;2023-09-30T09:27:10;20.90;;;9.77;;
9420;SDS011;4749;51.398;5.466;2023-09-30T09:29:39;20.23;;;10.45;;
9420;SDS011;4749;51.398;5.466;2023-09-30T09:34:40;15.40;;;8.82;;
9420;SDS011;4749;51.398;5.466;2023-09-30T09:37:13;16.83;;;8.38;;
9420;SDS011;4749;51.398;5.466;2023-09-30T09:42:25;14.30;;;6.80;;
9420;SDS011;4749;51.398;5.466;2023-09-30T09:44:57;13.60;;;6.30;;
9420;SDS011;4749;51.398;5.466;2023-09-30T09:47:30;12.15;;;6.53;;
9420;SDS011;4749;51.398;5.466;2023-09-30T09:49:59;17.77;;;6.10;;
9420;SDS011;4749;51.398;5.466;2023-09-30T09:52:33;11.23;;;5.55;;
9420;SDS011;4749;51.398;5.466;2023-09-30T09:55:01;9.13;;;5.60;;
9420;SDS011;4749;51.398;5.466;2023-09-30T09:57:30;11.15;;;5.13;;
9420;SDS011;4749;51.398;5.466;2023-09-30T09:59:58;12.68;;;5.15;;
9420;SDS011;4749;51.398;5.466;2023-09-30T10:02:26;9.48;;;4.55;;
9420;SDS011;4749;51.398;5.466;2023-09-30T10:04:56;15.02;;;4.45;;
9420;SDS011;4749;51.398;5.466;2023-09-30T10:07:28;9.63;;;4.88;;
9420;SDS011;4749;51.398;5.466;2023-09-30T10:10:02;9.77;;;5.10;;
9420;SDS011;4749;51.398;5.466;2023-09-30T10:12:37;10.07;;;4.88;;
9420;SDS011;4749;51.398;5.466;2023-09-30T10:18:02;9.60;;;4.70;;
9420;SDS011;4749;51.398;5.466;2023-09-30T10:20:42;7.55;;;4.22;;
9420;SDS011;4749;51.398;5.466;2023-09-30T10:23:27;8.63;;;4.10;;
9420;SDS011;4749;51.398;5.466;2023-09-30T10:28:45;11.88;;;4.95;;
9420;SDS011;4749;51.398;5.466;2023-09-30T10:31:20;8.68;;;4.28;;
9420;SDS011;4749;51.398;5.466;2023-09-30T10:39:00;9.25;;;4.32;;
9420;SDS011;4749;51.398;5.466;2023-09-30T10:46:57;9.13;;;4.78;;
9420;SDS011;4749;51.398;5.466;2023-09-30T10:51:54;8.02;;;4.00;;
9420;SDS011;4749;51.398;5.466;2023-09-30T10:54:30;9.32;;;4.22;;
9420;SDS011;4749;51.398;5.466;2023-09-30T10:56:59;7.65;;;3.08;;
9420;SDS011;4749;51.398;5.466;2023-09-30T10:59:27;9.68;;;3.65;;
9420;SDS011;4749;51.398;5.466;2023-09-30T11:02:02;6.30;;;3.35;;
9420;SDS011;4749;51.398;5.466;2023-09-30T11:04:32;7.97;;;3.53;;
9420;SDS011;4749;51.398;5.466;2023-09-30T11:07:16;7.20;;;3.38;;
9420;SDS011;4749;51.398;5.466;2023-09-30T11:09:50;9.38;;;3.70;;
9420;SDS011;4749;51.398;5.466;2023-09-30T11:12:17;11.35;;;3.30;;
9420;SDS011;4749;51.398;5.466;2023-09-30T11:14:44;6.60;;;2.80;;
9420;SDS011;4749;51.398;5.466;2023-09-30T11:17:12;8.48;;;3.10;;
9420;SDS011;4749;51.398;5.466;2023-09-30T11:19:46;5.40;;;2.72;;
9420;SDS011;4749;51.398;5.466;2023-09-30T11:22:15;7.15;;;3.03;;
9420;SDS011;4749;51.398;5.466;2023-09-30T11:24:43;5.97;;;3.15;;
9420;SDS011;4749;51.398;5.466;2023-09-30T11:27:13;9.43;;;3.58;;
9420;SDS011;4749;51.398;5.466;2023-09-30T11:29:49;8.20;;;3.00;;
9420;SDS011;4749;51.398;5.466;2023-09-30T11:32:26;5.55;;;2.92;;
9420;SDS011;4749;51.398;5.466;2023-09-30T11:34:55;8.68;;;2.90;;
9420;SDS011;4749;51.398;5.466;2023-09-30T11:37:30;7.95;;;3.05;;
9420;SDS011;4749;51.398;5.466;2023-09-30T11:40:10;5.28;;;2.00;;
9420;SDS011;4749;51.398;5.466;2023-09-30T11:43:06;6.32;;;2.30;;
9420;SDS011;4749;51.398;5.466;2023-09-30T11:45:39;5.10;;;2.60;;
9420;SDS011;4749;51.398;5.466;2023-09-30T11:48:16;6.97;;;2.10;;
9420;SDS011;4749;51.398;5.466;2023-09-30T11:50:48;6.20;;;2.75;;
9420;SDS011;4749;51.398;5.466;2023-09-30T11:53:19;7.45;;;2.97;;
9420;SDS011;4749;51.398;5.466;2023-09-30T11:55:47;6.00;;;2.70;;
9420;SDS011;4749;51.398;5.466;2023-09-30T11:58:14;6.65;;;2.92;;
9420;SDS011;4749;51.398;5.466;2023-09-30T12:00:44;4.65;;;2.42;;
9420;SDS011;4749;51.398;5.466;2023-09-30T12:03:12;8.40;;;2.60;;
9420;SDS011;4749;51.398;5.466;2023-09-30T12:05:40;6.97;;;2.45;;
9420;SDS011;4749;51.398;5.466;2023-09-30T12:08:07;7.05;;;2.92;;
9420;SDS011;4749;51.398;5.466;2023-09-30T12:10:34;5.25;;;2.55;;
9420;SDS011;4749;51.398;5.466;2023-09-30T12:13:02;5.90;;;2.67;;
9420;SDS011;4749;51.398;5.466;2023-09-30T12:15:29;6.85;;;2.60;;
9420;SDS011;4749;51.398;5.466;2023-09-30T12:17:57;5.32;;;2.50;;
9420;SDS011;4749;51.398;5.466;2023-09-30T12:20:25;9.13;;;3.20;;
9420;SDS011;4749;51.398;5.466;2023-09-30T12:22:52;6.10;;;2.60;;
9420;SDS011;4749;51.398;5.466;2023-09-30T12:25:20;6.78;;;2.55;;
9420;SDS011;4749;51.398;5.466;2023-09-30T12:27:49;5.22;;;2.38;;
9420;SDS011;4749;51.398;5.466;2023-09-30T12:30:17;5.85;;;2.22;;
9420;SDS011;4749;51.398;5.466;2023-09-30T12:32:46;4.25;;;2.13;;
9420;SDS011;4749;51.398;5.466;2023-09-30T12:35:13;7.20;;;2.25;;
9420;SDS011;4749;51.398;5.466;2023-09-30T12:37:41;6.03;;;2.70;;
9420;SDS011;4749;51.398;5.466;2023-09-30T12:40:09;7.95;;;3.17;;
9420;SDS011;4749;51.398;5.466;2023-09-30T12:42:38;8.80;;;2.35;;
9420;SDS011;4749;51.398;5.466;2023-09-30T12:45:05;6.65;;;2.70;;
9420;SDS011;4749;51.398;5.466;2023-09-30T12:47:33;6.57;;;2.58;;
9420;SDS011;4749;51.398;5.466;2023-09-30T12:50:00;8.60;;;3.10;;
9420;SDS011;4749;51.398;5.466;2023-09-30T12:52:27;5.85;;;2.63;;
9420;SDS011;4749;51.398;5.466;2023-09-30T12:54:54;8.88;;;3.17;;
9420;SDS011;4749;51.398;5.466;2023-09-30T12:57:22;6.32;;;3.00;;
9420;SDS011;4749;51.398;5.466;2023-09-30T12:59:49;7.88;;;2.47;;
9420;SDS011;4749;51.398;5.466;2023-09-30T13:02:16;7.72;;;2.72;;
9420;SDS011;4749;51.398;5.466;2023-09-30T13:04:45;6.93;;;2.90;;
9420;SDS011;4749;51.398;5.466;2023-09-30T13:07:12;8.40;;;3.00;;
9420;SDS011;4749;51.398;5.466;2023-09-30T13:09:39;5.57;;;2.78;;
9420;SDS011;4749;51.398;5.466;2023-09-30T13:12:07;9.40;;;3.13;;
9420;SDS011;4749;51.398;5.466;2023-09-30T13:14:35;7.22;;;2.70;;
9420;SDS011;4749;51.398;5.466;2023-09-30T13:17:02;8.48;;;3.15;;
9420;SDS011;4749;51.398;5.466;2023-09-30T13:19:33;6.75;;;2.90;;
9420;SDS011;4749;51.398;5.466;2023-09-30T13:22:00;7.38;;;2.92;;
9420;SDS011;4749;51.398;5.466;2023-09-30T13:24:44;6.63;;;3.15;;
9420;SDS011;4749;51.398;5.466;2023-09-30T13:27:12;7.63;;;3.35;;
9420;SDS011;4749;51.398;5.466;2023-09-30T13:29:43;7.20;;;2.92;;
9420;SDS011;4749;51.398;5.466;2023-09-30T13:32:11;5.82;;;3.33;;
9420;SDS011;4749;51.398;5.466;2023-09-30T13:34:40;5.13;;;2.38;;
9420;SDS011;4749;51.398;5.466;2023-09-30T13:37:08;6.85;;;2.83;;
9420;SDS011;4749;51.398;5.466;2023-09-30T13:39:35;7.22;;;2.90;;
9420;SDS011;4749;51.398;5.466;2023-09-30T13:42:02;5.22;;;2.40;;
9420;SDS011;4749;51.398;5.466;2023-09-30T13:44:30;8.55;;;3.15;;
9420;SDS011;4749;51.398;5.466;2023-09-30T13:46:57;6.60;;;2.72;;
9420;SDS011;4749;51.398;5.466;2023-09-30T13:49:24;5.28;;;2.85;;
9420;SDS011;4749;51.398;5.466;2023-09-30T13:52:07;6.72;;;3.17;;
9420;SDS011;4749;51.398;5.466;2023-09-30T13:54:37;6.85;;;2.90;;
9420;SDS011;4749;51.398;5.466;2023-09-30T13:57:05;8.50;;;3.35;;
9420;SDS011;4749;51.398;5.466;2023-09-30T13:59:35;5.88;;;3.03;;
9420;SDS011;4749;51.398;5.466;2023-09-30T14:02:03;6.28;;;3.58;;
9420;SDS011;4749;51.398;5.466;2023-09-30T14:04:30;7.25;;;3.40;;
9420;SDS011;4749;51.398;5.466;2023-09-30T14:07:04;7.68;;;3.35;;
9420;SDS011;4749;51.398;5.466;2023-09-30T14:09:34;7.07;;;3.65;;
9420;SDS011;4749;51.398;5.466;2023-09-30T14:12:02;8.07;;;3.17;;
9420;SDS011;4749;51.398;5.466;2023-09-30T14:14:33;6.00;;;3.28;;
9420;SDS011;4749;51.398;5.466;2023-09-30T14:17:01;8.05;;;3.28;;
9420;SDS011;4749;51.398;5.466;2023-09-30T14:19:37;5.93;;;3.20;;
9420;SDS011;4749;51.398;5.466;2023-09-30T14:22:05;6.35;;;3.40;;
9420;SDS011;4749;51.398;5.466;2023-09-30T14:24:35;7.63;;;3.45;;
9420;SDS011;4749;51.398;5.466;2023-09-30T14:27:02;7.05;;;3.33;;
9420;SDS011;4749;51.398;5.466;2023-09-30T14:29:31;6.68;;;3.33;;
9420;SDS011;4749;51.398;5.466;2023-09-30T14:31:58;7.90;;;4.30;;
9420;SDS011;4749;51.398;5.466;2023-09-30T14:34:26;7.28;;;4.00;;
9420;SDS011;4749;51.398;5.466;2023-09-30T14:36:53;6.00;;;3.70;;
9420;SDS011;4749;51.398;5.466;2023-09-30T14:39:21;9.38;;;4.03;;
9420;SDS011;4749;51.398;5.466;2023-09-30T14:41:49;6.45;;;4.10;;
9420;SDS011;4749;51.398;5.466;2023-09-30T14:44:16;8.90;;;3.75;;
9420;SDS011;4749;51.398;5.466;2023-09-30T14:46:44;7.90;;;4.57;;
9420;SDS011;4749;51.398;5.466;2023-09-30T14:49:11;45.88;;;16.23;;
9420;SDS011;4749;51.398;5.466;2023-09-30T14:51:39;27.45;;;9.73;;
9420;SDS011;4749;51.398;5.466;2023-09-30T14:54:06;7.93;;;4.60;;
9420;SDS011;4749;51.398;5.466;2023-09-30T14:56:38;6.90;;;4.07;;
9420;SDS011;4749;51.398;5.466;2023-09-30T14:59:05;9.25;;;4.25;;
9420;SDS011;4749;51.398;5.466;2023-09-30T15:01:32;6.00;;;4.32;;
9420;SDS011;4749;51.398;5.466;2023-09-30T15:04:00;8.30;;;4.68;;
9420;SDS011;4749;51.398;5.466;2023-09-30T15:06:27;7.18;;;3.80;;
9420;SDS011;4749;51.398;5.466;2023-09-30T15:08:55;6.32;;;3.40;;
9420;SDS011;4749;51.398;5.466;2023-09-30T15:11:22;9.27;;;3.70;;
9420;SDS011;4749;51.398;5.466;2023-09-30T15:13:50;6.88;;;3.22;;
9420;SDS011;4749;51.398;5.466;2023-09-30T15:16:18;6.97;;;3.67;;
9420;SDS011;4749;51.398;5.466;2023-09-30T15:18:48;7.50;;;3.83;;
9420;SDS011;4749;51.398;5.466;2023-09-30T15:21:16;5.28;;;3.35;;
9420;SDS011;4749;51.398;5.466;2023-09-30T15:23:43;10.05;;;4.15;;
9420;SDS011;4749;51.398;5.466;2023-09-30T15:26:10;7.57;;;3.67;;
9420;SDS011;4749;51.398;5.466;2023-09-30T15:28:37;6.88;;;3.47;;
9420;SDS011;4749;51.398;5.466;2023-09-30T15:31:05;8.63;;;3.65;;
9420;SDS011;4749;51.398;5.466;2023-09-30T15:33:33;7.15;;;3.75;;
9420;SDS011;4749;51.398;5.466;2023-09-30T15:36:14;7.93;;;4.43;;
9420;SDS011;4749;51.398;5.466;2023-09-30T15:38:46;7.85;;;4.30;;
9420;SDS011;4749;51.398;5.466;2023-09-30T15:41:14;6.47;;;3.45;;
9420;SDS011;4749;51.398;5.466;2023-09-30T15:43:46;7.80;;;3.97;;
9420;SDS011;4749;51.398;5.466;2023-09-30T15:46:13;7.72;;;3.55;;
9420;SDS011;4749;51.398;5.466;2023-09-30T15:48:41;9.38;;;3.92;;
9420;SDS011;4749;51.398;5.466;2023-09-30T15:51:08;7.00;;;3.17;;
9420;SDS011;4749;51.398;5.466;2023-09-30T15:53:35;6.88;;;3.63;;
9420;SDS011;4749;51.398;5.466;2023-09-30T15:56:04;6.68;;;3.75;;
9420;SDS011;4749;51.398;5.466;2023-09-30T15:58:31;10.45;;;4.30;;
9420;SDS011;4749;51.398;5.466;2023-09-30T16:00:59;7.70;;;4.20;;
9420;SDS011;4749;51.398;5.466;2023-09-30T16:03:26;6.85;;;4.18;;
9420;SDS011;4749;51.398;5.466;2023-09-30T16:05:54;6.32;;;4.18;;
9420;SDS011;4749;51.398;5.466;2023-09-30T16:08:22;7.90;;;4.57;;
9420;SDS011;4749;51.398;5.466;2023-09-30T16:10:49;9.70;;;4.15;;
9420;SDS011;4749;51.398;5.466;2023-09-30T16:13:16;8.77;;;3.90;;
9420;SDS011;4749;51.398;5.466;2023-09-30T16:15:43;7.47;;;3.80;;
9420;SDS011;4749;51.398;5.466;2023-09-30T16:18:12;7.32;;;3.80;;
9420;SDS011;4749;51.398;5.466;2023-09-30T16:20:39;7.32;;;3.80;;
9420;SDS011;4749;51.398;5.466;2023-09-30T16:23:07;8.13;;;4.15;;
9420;SDS011;4749;51.398;5.466;2023-09-30T16:25:34;7.88;;;4.45;;
9420;SDS011;4749;51.398;5.466;2023-09-30T16:28:01;7.13;;;4.68;;
9420;SDS011;4749;51.398;5.466;2023-09-30T16:30:30;7.55;;;4.60;;